createdAt,value
2023-03-03T00:01:41.850Z,54.88
2023-03-03T00:04:27.682Z,55.20
2023-03-03T00:07:15.534Z,54.92
2023-03-03T00:10:01.374Z,54.91
2023-03-03T00:12:49.031Z,55.02
2023-03-03T00:15:36.413Z,55.35
2023-03-03T00:18:30.980Z,54.94
2023-03-03T00:21:26.482Z,55.27
2023-03-03T00:24:21.983Z,55.19
2023-03-03T00:27:32.091Z,55.17
2023-03-03T00:30:26.367Z,55.25
2023-03-03T00:33:33.159Z,55.32
2023-03-03T00:36:31.717Z,55.15
2023-03-03T00:39:17.422Z,55.09
2023-03-03T00:42:10.698Z,55.17
2023-03-03T00:44:59.093Z,55.56
2023-03-03T00:47:45.313Z,55.24
2023-03-03T00:50:35.323Z,55.49
2023-03-03T00:53:23.605Z,55.60
2023-03-03T00:56:09.744Z,55.26
2023-03-03T00:58:55.699Z,55.60
2023-03-03T01:01:42.020Z,55.67
2023-03-03T01:04:27.841Z,55.36
2023-03-03T01:07:13.913Z,55.53
2023-03-03T01:10:00.028Z,55.65
2023-03-03T01:12:45.980Z,55.95
2023-03-03T01:15:31.991Z,55.32
2023-03-03T01:18:18.704Z,55.42
2023-03-03T01:21:05.625Z,56.13
2023-03-03T01:23:51.358Z,55.29
2023-03-03T01:26:37.676Z,55.71
2023-03-03T01:29:24.646Z,55.67
2023-03-03T01:32:10.684Z,55.86
2023-03-03T01:34:56.713Z,56.13
2023-03-03T01:37:42.680Z,55.80
2023-03-03T01:40:30.902Z,55.37
2023-03-03T01:43:16.949Z,55.56
2023-03-03T01:46:02.688Z,55.65
2023-03-03T01:48:48.676Z,55.58
2023-03-03T01:51:39.222Z,56.11
2023-03-03T01:54:29.080Z,55.76
2023-03-03T01:57:19.852Z,56.14
2023-03-03T02:00:06.728Z,56.43
2023-03-03T02:02:58.772Z,55.35
2023-03-03T02:05:45.006Z,55.66
2023-03-03T02:08:37.344Z,56.17
2023-03-03T02:11:23.625Z,56.02
2023-03-03T02:14:11.142Z,55.75
2023-03-03T02:17:02.339Z,56.17
2023-03-03T02:20:08.069Z,55.99
2023-03-03T02:22:58.862Z,56.12
2023-03-03T02:25:58.804Z,56.36
2023-03-03T02:28:46.559Z,56.09
2023-03-03T02:31:33.380Z,55.92
2023-03-03T02:34:19.233Z,55.75
2023-03-03T02:37:05.473Z,56.39
2023-03-03T02:39:51.661Z,56.33
2023-03-03T02:42:37.931Z,56.20
2023-03-03T02:45:24.038Z,55.82
2023-03-03T02:48:10.494Z,56.01
2023-03-03T02:50:57.775Z,56.12
2023-03-03T02:53:43.888Z,56.11
2023-03-03T02:56:29.850Z,56.33
2023-03-03T02:59:17.201Z,56.09
2023-03-03T03:02:08.839Z,56.29
2023-03-03T03:04:55.033Z,56.04
2023-03-03T03:07:43.979Z,56.28
2023-03-03T03:10:29.837Z,56.44
2023-03-03T03:13:15.790Z,56.28
2023-03-03T03:16:03.149Z,56.10
2023-03-03T03:18:50.760Z,56.25
2023-03-03T03:21:37.428Z,56.09
2023-03-03T03:24:25.270Z,56.75
2023-03-03T03:27:17.215Z,56.55
2023-03-03T03:30:03.630Z,56.63
2023-03-03T03:32:50.393Z,56.14
2023-03-03T03:35:37.120Z,56.23
2023-03-03T03:38:24.768Z,56.28
2023-03-03T03:41:11.921Z,56.63
2023-03-03T03:43:57.860Z,56.66
2023-03-03T03:46:43.924Z,56.51
2023-03-03T03:49:30.479Z,56.48
2023-03-03T03:52:18.111Z,56.74
2023-03-03T03:55:05.271Z,56.40
2023-03-03T03:57:52.194Z,56.54
2023-03-03T04:00:42.343Z,56.11
2023-03-03T04:03:28.907Z,56.51
2023-03-03T04:06:15.120Z,56.81
2023-03-03T04:09:01.780Z,56.33
2023-03-03T04:11:49.086Z,56.50
2023-03-03T04:14:36.050Z,56.47
2023-03-03T04:17:25.044Z,56.54
2023-03-03T04:20:14.093Z,56.35
2023-03-03T04:23:00.276Z,56.43
2023-03-03T04:25:47.165Z,56.53
2023-03-03T04:28:34.051Z,56.58
2023-03-03T04:31:20.808Z,56.26
2023-03-03T04:34:07.965Z,56.46
2023-03-03T04:36:54.475Z,56.20
2023-03-03T04:39:40.421Z,56.33
2023-03-03T04:42:28.277Z,56.58
2023-03-03T04:45:14.853Z,56.46
2023-03-03T04:48:01.037Z,56.38
2023-03-03T04:50:47.505Z,56.45
2023-03-03T04:53:33.371Z,56.50
2023-03-03T04:56:19.057Z,56.76
2023-03-03T04:59:05.219Z,56.72
2023-03-03T05:01:51.676Z,56.81
2023-03-03T05:04:37.399Z,56.71
2023-03-03T05:07:24.099Z,56.64
2023-03-03T05:10:11.075Z,57.11
2023-03-03T05:12:57.353Z,56.95
2023-03-03T05:15:43.475Z,56.83
2023-03-03T05:18:29.166Z,56.99
2023-03-03T05:21:15.077Z,56.59
2023-03-03T05:24:00.996Z,57.29
2023-03-03T05:26:46.790Z,56.85
2023-03-03T05:29:33.954Z,56.77
2023-03-03T05:32:19.792Z,56.65
2023-03-03T05:35:06.087Z,57.08
2023-03-03T05:37:52.816Z,57.33
2023-03-03T05:40:39.005Z,57.17
2023-03-03T05:43:25.288Z,56.91
2023-03-03T05:46:12.297Z,57.04
2023-03-03T05:48:58.545Z,57.27
2023-03-03T05:51:44.453Z,57.19
2023-03-03T05:54:30.276Z,57.35
2023-03-03T05:57:16.348Z,58.03
2023-03-03T06:00:05.813Z,57.39
2023-03-03T06:02:58.126Z,57.49
2023-03-03T06:05:44.135Z,58.68
2023-03-03T06:08:30.689Z,57.79
2023-03-03T06:11:18.692Z,57.67
2023-03-03T06:14:05.317Z,57.48
2023-03-03T06:16:51.591Z,57.64
2023-03-03T06:19:37.895Z,57.74
2023-03-03T06:22:28.833Z,57.52
2023-03-03T06:25:15.098Z,57.45
2023-03-03T06:28:00.925Z,57.38
2023-03-03T06:30:46.808Z,57.51
2023-03-03T06:33:32.617Z,57.06
2023-03-03T06:36:18.932Z,57.29
2023-03-03T06:39:04.866Z,57.50
2023-03-03T06:41:50.587Z,56.97
2023-03-03T06:44:36.656Z,57.31
2023-03-03T06:47:22.835Z,57.74
2023-03-03T06:50:11.136Z,58.00
2023-03-03T06:53:17.696Z,58.05
2023-03-03T06:56:09.197Z,57.66
2023-03-03T06:58:57.263Z,57.67
2023-03-03T07:01:44.332Z,57.82
2023-03-03T07:04:34.116Z,57.59
2023-03-03T07:07:25.202Z,57.89
2023-03-03T07:10:31.553Z,57.53
2023-03-03T07:13:26.167Z,57.81
2023-03-03T07:16:13.655Z,57.65
2023-03-03T07:19:05.496Z,57.77
2023-03-03T07:21:52.894Z,57.85
2023-03-03T07:24:39.068Z,57.69
2023-03-03T07:27:27.952Z,57.51
2023-03-03T07:30:28.419Z,57.71
2023-03-03T07:33:38.326Z,57.79
2023-03-03T07:36:28.942Z,57.27
2023-03-03T07:39:39.133Z,57.55
2023-03-03T07:42:38.440Z,57.13
2023-03-03T07:45:47.604Z,57.34
2023-03-03T07:48:37.920Z,57.75
2023-03-03T07:51:29.152Z,57.92
2023-03-03T07:54:30.077Z,57.42
2023-03-03T07:57:38.041Z,57.79
2023-03-03T08:00:24.684Z,57.10
2023-03-03T08:03:16.975Z,57.65
2023-03-03T08:06:25.418Z,57.69
2023-03-03T08:09:11.339Z,57.69
2023-03-03T08:12:02.439Z,57.74
2023-03-03T08:14:51.302Z,57.40
2023-03-03T08:17:39.401Z,56.94
2023-03-03T08:20:46.560Z,57.14
2023-03-03T08:23:32.782Z,57.44
2023-03-03T08:26:19.886Z,57.39
2023-03-03T08:29:06.005Z,57.09
2023-03-03T08:31:51.885Z,57.13
2023-03-03T08:34:37.909Z,57.17
2023-03-03T08:37:23.838Z,56.83
2023-03-03T08:40:10.440Z,56.88
2023-03-03T08:42:58.189Z,56.91
2023-03-03T08:45:51.726Z,56.91
2023-03-03T08:48:38.266Z,57.10
2023-03-03T08:51:25.476Z,56.79
2023-03-03T08:54:11.372Z,56.80
2023-03-03T08:56:57.196Z,56.89
2023-03-03T08:59:43.175Z,56.59
2023-03-03T09:02:29.029Z,57.00
2023-03-03T09:05:15.280Z,56.31
2023-03-03T09:08:01.580Z,56.69
2023-03-03T09:10:47.439Z,56.61
2023-03-03T09:13:33.812Z,56.44
2023-03-03T09:16:21.862Z,56.63
2023-03-03T09:19:22.127Z,56.96
2023-03-03T09:22:34.442Z,56.57
2023-03-03T09:25:39.766Z,56.64
2023-03-03T09:28:32.009Z,56.43
2023-03-03T09:31:39.834Z,56.71
2023-03-03T09:34:44.006Z,56.63
2023-03-03T09:37:36.231Z,56.33
2023-03-03T09:40:57.196Z,56.26
2023-03-03T09:43:54.784Z,56.46
2023-03-03T09:46:59.338Z,56.48
2023-03-03T09:50:13.052Z,55.90
2023-03-03T09:53:05.117Z,55.89
2023-03-03T09:55:51.335Z,55.96
2023-03-03T09:58:58.970Z,56.10
2023-03-03T10:01:58.559Z,55.80
2023-03-03T10:05:14.776Z,56.12
2023-03-03T10:08:03.803Z,55.98
2023-03-03T10:11:01.897Z,55.91
2023-03-03T10:13:56.883Z,55.83
2023-03-03T10:17:04.500Z,55.61
2023-03-03T10:20:09.661Z,55.49
2023-03-03T10:22:59.593Z,55.50
2023-03-03T10:26:05.772Z,55.55
2023-03-03T10:29:00.853Z,55.58
2023-03-03T10:32:22.238Z,55.16
2023-03-03T10:35:35.088Z,55.43
2023-03-03T10:38:36.365Z,54.86
2023-03-03T10:41:44.350Z,55.42
2023-03-03T10:44:45.437Z,55.36
2023-03-03T10:47:35.924Z,55.33
2023-03-03T10:50:46.760Z,55.27
2023-03-03T10:53:38.953Z,54.83
2023-03-03T10:56:53.533Z,55.28
2023-03-03T11:00:18.295Z,54.93
2023-03-03T11:03:35.559Z,54.82
2023-03-03T11:06:36.526Z,54.71
2023-03-03T11:09:46.460Z,55.05
2023-03-03T11:12:47.967Z,55.02
2023-03-03T11:15:58.880Z,54.69
2023-03-03T11:19:12.988Z,54.69
2023-03-03T11:22:05.477Z,54.75
2023-03-03T11:25:08.919Z,54.55
2023-03-03T11:28:09.581Z,54.44
2023-03-03T11:31:07.375Z,54.00
2023-03-03T11:33:54.192Z,54.22
2023-03-03T11:36:46.135Z,53.85
2023-03-03T11:39:33.409Z,53.86
2023-03-03T11:42:26.739Z,53.72
2023-03-03T11:45:19.150Z,53.43
2023-03-03T11:48:11.255Z,53.16
2023-03-03T11:51:07.770Z,53.23
2023-03-03T11:54:05.490Z,53.10
2023-03-03T11:56:55.302Z,53.02
2023-03-03T12:00:09.473Z,52.91
2023-03-03T12:03:01.642Z,52.74
2023-03-03T12:06:24.303Z,52.38
2023-03-03T12:09:25.636Z,52.38
2023-03-03T12:12:24.614Z,52.31
2023-03-03T12:15:51.842Z,51.98
2023-03-03T12:18:47.064Z,52.13
2023-03-03T12:21:57.781Z,52.17
2023-03-03T12:25:02.580Z,51.86
2023-03-03T12:28:09.334Z,51.38
2023-03-03T12:31:01.999Z,51.37
2023-03-03T12:34:13.105Z,51.30
2023-03-03T12:37:33.309Z,51.36
2023-03-03T12:40:25.364Z,51.32
2023-03-03T12:43:17.663Z,51.26
2023-03-03T12:46:15.759Z,51.05
2023-03-03T12:49:02.160Z,51.25
2023-03-03T12:52:14.637Z,51.18
2023-03-03T12:55:11.817Z,50.55
2023-03-03T12:58:10.142Z,50.29
2023-03-03T13:01:16.553Z,50.40
2023-03-03T13:04:02.356Z,50.15
2023-03-03T13:07:11.405Z,50.05
2023-03-03T13:10:03.558Z,49.53
2023-03-03T13:13:26.827Z,49.45
2023-03-03T13:16:40.405Z,49.17
2023-03-03T13:19:39.375Z,49.22
2023-03-03T13:22:43.535Z,48.87
2023-03-03T13:25:36.303Z,48.71
2023-03-03T13:28:30.943Z,48.80
2023-03-03T13:31:26.549Z,48.83
2023-03-03T13:34:30.644Z,48.92
2023-03-03T13:37:21.311Z,49.01
2023-03-03T13:40:13.667Z,48.69
2023-03-03T13:43:03.267Z,48.73
2023-03-03T13:46:45.232Z,48.95
2023-03-03T13:49:31.440Z,48.83
2023-03-03T13:52:51.102Z,48.65
2023-03-03T13:55:45.292Z,48.32
2023-03-03T13:58:39.793Z,48.35
2023-03-03T14:01:35.863Z,48.21
2023-03-03T14:04:54.077Z,48.50
2023-03-03T14:07:50.288Z,48.29
2023-03-03T14:10:44.976Z,47.91
2023-03-03T14:13:37.665Z,48.16
2023-03-03T14:16:52.639Z,48.16
2023-03-03T14:19:48.119Z,48.31
2023-03-03T14:23:21.708Z,48.52
2023-03-03T14:26:09.649Z,48.12
2023-03-03T14:29:17.126Z,48.00
2023-03-03T14:32:21.523Z,48.37
2023-03-03T14:35:18.321Z,47.94
2023-03-03T14:38:17.731Z,47.90
2023-03-03T14:41:21.212Z,45.53
2023-03-03T14:44:22.578Z,47.79
2023-03-03T14:47:17.246Z,48.42
2023-03-03T14:50:36.400Z,48.70
2023-03-03T14:53:34.716Z,49.25
2023-03-03T14:56:25.405Z,48.92
2023-03-03T14:59:23.874Z,48.86
2023-03-03T15:02:16.022Z,48.98
2023-03-03T15:05:30.526Z,48.89
2023-03-03T15:08:25.121Z,49.22
2023-03-03T15:11:21.558Z,48.66
2023-03-03T15:14:14.537Z,48.92
2023-03-03T15:17:21.101Z,49.08
2023-03-03T15:20:20.185Z,49.90
2023-03-03T15:23:25.028Z,49.79
2023-03-03T15:26:33.012Z,49.26
2023-03-03T15:29:42.454Z,49.23
2023-03-03T15:32:31.065Z,49.40
2023-03-03T15:35:51.445Z,49.29
2023-03-03T15:39:01.210Z,49.46
2023-03-03T15:42:05.922Z,49.63
2023-03-03T15:45:15.410Z,49.54
2023-03-03T15:48:07.471Z,49.72
2023-03-03T15:51:32.476Z,49.99
2023-03-03T15:54:31.055Z,49.71
2023-03-03T15:57:32.615Z,50.17
2023-03-03T16:00:22.296Z,49.79
2023-03-03T16:03:18.004Z,50.21
2023-03-03T16:06:12.308Z,50.00
2023-03-03T16:09:07.177Z,50.32
2023-03-03T16:12:34.512Z,50.31
2023-03-03T16:15:26.364Z,50.21
2023-03-03T16:18:27.860Z,50.00
2023-03-03T16:21:52.286Z,50.17
2023-03-03T16:25:04.444Z,50.44
2023-03-03T16:28:07.398Z,49.96
2023-03-03T16:31:19.525Z,50.61
2023-03-03T16:34:13.947Z,50.71
2023-03-03T16:37:29.943Z,50.73
2023-03-03T16:40:26.532Z,50.76
2023-03-03T16:43:42.866Z,50.78
2023-03-03T16:46:37.293Z,50.87
2023-03-03T16:49:46.198Z,50.80
2023-03-03T16:52:48.351Z,51.01
2023-03-03T16:56:08.763Z,51.01
2023-03-03T16:59:06.995Z,51.38
2023-03-03T17:02:04.221Z,50.97
2023-03-03T17:05:06.317Z,51.21
2023-03-03T17:07:55.253Z,51.38
2023-03-03T17:10:56.706Z,51.10
2023-03-03T17:14:04.429Z,51.81
2023-03-03T17:17:12.508Z,51.84
2023-03-03T17:20:16.637Z,51.41
2023-03-03T17:23:40.639Z,51.71
2023-03-03T17:26:39.164Z,51.45
2023-03-03T17:29:56.637Z,51.65
2023-03-03T17:33:07.754Z,51.77
2023-03-03T17:36:32.676Z,51.28
2023-03-03T17:39:57.736Z,52.21
2023-03-03T17:42:45.596Z,51.84
2023-03-03T17:45:35.533Z,51.94
2023-03-03T17:48:32.217Z,52.19
2023-03-03T17:51:49.541Z,52.46
2023-03-03T17:54:59.139Z,52.23
2023-03-03T17:58:06.958Z,51.79
2023-03-03T18:01:13.704Z,52.13
2023-03-03T18:04:15.987Z,52.04
2023-03-03T18:07:39.573Z,52.90
2023-03-03T18:10:43.360Z,52.76
2023-03-03T18:13:38.774Z,52.33
2023-03-03T18:16:33.755Z,52.27
2023-03-03T18:19:57.465Z,52.69
2023-03-03T18:22:52.248Z,52.95
2023-03-03T18:25:58.782Z,52.99
2023-03-03T18:28:50.615Z,52.58
2023-03-03T18:31:59.731Z,52.97
2023-03-03T18:34:45.786Z,52.86
2023-03-03T18:37:31.930Z,52.63
2023-03-03T18:40:30.174Z,52.81
2023-03-03T18:43:41.159Z,53.17
2023-03-03T18:46:27.185Z,52.75
2023-03-03T18:49:13.164Z,52.63
2023-03-03T18:52:21.419Z,52.94
2023-03-03T18:55:10.508Z,53.08
2023-03-03T18:58:19.403Z,52.88
2023-03-03T19:01:10.645Z,52.74
2023-03-03T19:04:10.021Z,52.79
2023-03-03T19:07:09.778Z,53.07
2023-03-03T19:09:58.860Z,52.26
2023-03-03T19:12:58.183Z,53.05
2023-03-03T19:15:46.894Z,52.34
2023-03-03T19:18:41.765Z,53.12
2023-03-03T19:21:33.346Z,52.95
2023-03-03T19:24:34.191Z,53.01
2023-03-03T19:28:18.893Z,53.11
2023-03-03T19:31:17.392Z,52.81
2023-03-03T19:34:34.260Z,52.96
2023-03-03T19:38:11.927Z,52.83
2023-03-03T19:41:37.671Z,53.04
2023-03-03T19:44:41.990Z,52.49
2023-03-03T19:47:41.546Z,52.67
2023-03-03T19:50:35.046Z,52.64
2023-03-03T19:53:31.686Z,53.44
2023-03-03T19:56:26.708Z,53.04
2023-03-03T19:59:16.961Z,53.24
2023-03-03T20:02:24.794Z,52.85
2023-03-03T20:05:17.054Z,53.13
2023-03-03T20:08:27.886Z,52.85
2023-03-03T20:11:28.465Z,52.56
2023-03-03T20:14:28.661Z,53.22
2023-03-03T20:17:30.867Z,52.94
2023-03-03T20:20:35.847Z,52.74
2023-03-03T20:23:36.744Z,52.86
2023-03-03T20:26:31.775Z,53.10
2023-03-03T20:29:36.649Z,53.20
2023-03-03T20:32:47.694Z,52.70
2023-03-03T20:35:54.433Z,52.96
2023-03-03T20:38:44.636Z,53.25
2023-03-03T20:41:34.783Z,53.17
2023-03-03T20:44:51.775Z,53.15
2023-03-03T20:47:45.149Z,53.11
2023-03-03T20:50:37.408Z,52.76
2023-03-03T20:53:49.493Z,53.13
2023-03-03T20:56:35.940Z,53.27
2023-03-03T20:59:33.148Z,52.91
2023-03-03T21:02:39.475Z,53.35
2023-03-03T21:05:25.778Z,53.64
2023-03-03T21:08:11.892Z,53.33
2023-03-03T21:10:57.809Z,53.33
2023-03-03T21:13:52.247Z,53.26
2023-03-03T21:16:41.168Z,53.54
2023-03-03T21:19:36.596Z,53.87
2023-03-03T21:22:22.315Z,53.40
2023-03-03T21:25:12.718Z,53.56
2023-03-03T21:28:20.479Z,53.32
2023-03-03T21:31:13.887Z,53.31
2023-03-03T21:34:00.081Z,53.53
2023-03-03T21:36:49.935Z,53.42
2023-03-03T21:39:38.452Z,53.56
2023-03-03T21:42:41.794Z,53.46
2023-03-03T21:45:30.147Z,53.75
2023-03-03T21:48:16.489Z,53.76
2023-03-03T21:51:02.471Z,53.84
2023-03-03T21:53:48.648Z,53.88
2023-03-03T21:56:35.689Z,53.57
2023-03-03T21:59:22.020Z,53.91
2023-03-03T22:02:08.455Z,53.83
2023-03-03T22:04:54.320Z,53.77
2023-03-03T22:07:40.116Z,53.61
2023-03-03T22:10:26.082Z,53.59
2023-03-03T22:13:12.201Z,53.44
2023-03-03T22:15:58.592Z,53.63
2023-03-03T22:18:44.429Z,53.69
2023-03-03T22:21:39.716Z,53.89
2023-03-03T22:24:26.292Z,53.58
2023-03-03T22:27:12.415Z,54.04
2023-03-03T22:29:58.623Z,54.05
2023-03-03T22:32:44.433Z,53.64
2023-03-03T22:35:30.621Z,54.03
2023-03-03T22:38:17.106Z,54.20
2023-03-03T22:41:03.448Z,54.03
2023-03-03T22:43:49.384Z,54.03
2023-03-03T22:46:35.352Z,54.02
2023-03-03T22:49:21.145Z,53.56
2023-03-03T22:52:07.071Z,53.91
2023-03-03T22:54:52.922Z,54.23
2023-03-03T22:57:38.747Z,54.19
2023-03-03T23:00:24.633Z,54.04
2023-03-03T23:03:11.072Z,54.22
2023-03-03T23:05:56.931Z,54.02
2023-03-03T23:08:42.771Z,53.66
2023-03-03T23:11:28.672Z,53.99
2023-03-03T23:14:14.808Z,54.13
2023-03-03T23:17:00.865Z,54.01
2023-03-03T23:19:47.517Z,54.25
2023-03-03T23:22:33.636Z,54.42
2023-03-03T23:25:20.048Z,54.34
2023-03-03T23:28:06.479Z,54.31
2023-03-03T23:30:52.579Z,54.01
2023-03-03T23:33:38.457Z,54.36
2023-03-03T23:36:24.355Z,54.40
2023-03-03T23:39:10.211Z,54.38
2023-03-03T23:41:56.119Z,54.24
2023-03-03T23:44:42.035Z,53.84
2023-03-03T23:47:27.945Z,54.31
2023-03-03T23:50:14.432Z,54.11
2023-03-03T23:53:00.207Z,53.89
2023-03-03T23:55:46.026Z,54.13
2023-03-03T23:58:32.051Z,54.35
